Unity N — V7WI2 — position and weather

sailwx.info

Track history (hours):
 
Tides and Currents Weather Stations Pressure Air Temp Water Temp Dewpoint Dewpoint Depression Visibility Wind Speed Wind Dir Waves Ship Positions

Unity N

Last reported at 2016-Sep-13 22:32 UTC. Time now 2016-Sep-26 08:49 UTC.
Position S 26°39' E 153°14'.
Warning: this ship's position is 12 days out of date.

Length 229 m; draft 12.3 m.

Type: Cargo ship. MMSI: 538006451.

Date/timePositionNaut miles runAvg speedWind from/ knotsBaromVisibWave heightAir tempDewpointWater temp
2016-Sep-13 22:32S 26°39' E 153°14'19 9.5
2016-Sep-13 20:32S 26°58' E 153°14'19 9.2
2016-Sep-13 18:31S 27°16' E 153°16'9 9.1
2016-Sep-13 17:33S 27°23' E 153°09'0 0.1
2016-Sep-13 16:33S 27°23' E 153°10'0 0.0
2016-Sep-13 11:33S 27°23' E 153°10'0 0.0
2016-Sep-13 09:33S 27°23' E 153°10'0 0.0
2016-Sep-13 07:33S 27°23' E 153°10'0 0.1
2016-Sep-13 06:33S 27°23' E 153°09'0 0.0
2016-Sep-13 04:33S 27°23' E 153°10'0 0.0
2016-Sep-13 02:33S 27°23' E 153°09'0 0.0
2016-Sep-12 23:33S 27°23' E 153°10'0 0.0
2016-Sep-12 21:33S 27°23' E 153°10'0 0.0
2016-Sep-12 19:33S 27°23' E 153°10'0 0.0
2016-Sep-12 17:33S 27°23' E 153°10'0 0.0
2016-Sep-12 14:33S 27°23' E 153°10'0 0.0
2016-Sep-12 13:33S 27°23' E 153°10'0 0.0
2016-Sep-12 12:33S 27°23' E 153°10'0 0.0
2016-Sep-12 11:33S 27°23' E 153°10'0 0.1
2016-Sep-12 10:33S 27°23' E 153°09'20 6.6
2016-Sep-12 07:34S 27°05' E 153°19'1313.4
2016-Sep-12 06:33S 26°54' E 153°11'13 3.8
2016-Sep-12 03:03S 26°41' E 153°15'0 0.0
2016-Sep-12 01:24S 26°41' E 153°15'0 0.0
2016-Sep-11 23:33S 26°41' E 153°15'0 0.0
2016-Sep-11 21:30S 26°41' E 153°15'0 0.0
2016-Sep-11 20:33S 26°41' E 153°15'0 0.1
2016-Sep-11 19:33S 26°41' E 153°15'0 0.0
2016-Sep-11 18:33S 26°41' E 153°15'0 0.0
2016-Sep-11 17:33S 26°41' E 153°15'0 0.0
2016-Sep-11 16:30S 26°41' E 153°15'0 0.0
2016-Sep-11 14:33S 26°41' E 153°15'0 0.0
2016-Sep-11 13:24S 26°41' E 153°15'0 0.1
2016-Sep-11 12:33S 26°41' E 153°15'0 0.0
2016-Sep-11 11:21S 26°41' E 153°15'0 0.1
2016-Sep-11 10:33S 26°41' E 153°15'0 0.0
2016-Sep-11 08:33S 26°41' E 153°15'0 0.0
2016-Sep-11 07:33S 26°41' E 153°15'0 0.0
2016-Sep-11 03:33S 26°41' E 153°15'0 0.0
2016-Sep-11 02:33S 26°41' E 153°15'0 0.0
2016-Sep-11 01:33S 26°41' E 153°15'0 0.0
2016-Sep-10 23:33S 26°41' E 153°15'0 0.1
2016-Sep-10 22:15S 26°41' E 153°15'0 0.0
2016-Sep-10 21:33S 26°41' E 153°15'0 0.0
2016-Sep-10 20:33S 26°41' E 153°15'0 0.1
2016-Sep-10 19:33S 26°41' E 153°15'0 0.0
2016-Sep-10 18:33S 26°41' E 153°15'0 0.1
2016-Sep-10 17:33S 26°41' E 153°15'0 0.1
2016-Sep-10 16:33S 26°41' E 153°15'0 0.0
2016-Sep-10 15:33S 26°41' E 153°15'0 0.1
2016-Sep-10 14:33S 26°41' E 153°15'0 0.1
2016-Sep-10 13:33S 26°41' E 153°15'0 0.1
2016-Sep-10 12:33S 26°41' E 153°15'0 0.1
2016-Sep-10 11:30S 26°41' E 153°15'0 0.1
2016-Sep-10 10:33S 26°41' E 153°15'0 0.0
2016-Sep-10 09:33S 26°41' E 153°15'0 0.0
2016-Sep-10 04:33S 26°41' E 153°15'0 0.0
2016-Sep-10 03:06S 26°41' E 153°15'0 0.0
2016-Sep-10 02:27S 26°41' E 153°15'0 0.0
2016-Sep-10 01:33S 26°41' E 153°15'0 0.1
2016-Sep-10 00:33S 26°41' E 153°15'0 0.0
2016-Sep-09 23:30S 26°41' E 153°15'0 0.1
2016-Sep-09 22:33S 26°41' E 153°15'0 0.1
2016-Sep-09 21:33S 26°41' E 153°15'0 0.0
2016-Sep-09 20:15S 26°41' E 153°15'0 0.0
2016-Sep-09 19:33S 26°41' E 153°15'0 0.0
2016-Sep-09 18:33S 26°41' E 153°15'0 0.1
2016-Sep-09 17:33S 26°41' E 153°15'0 0.1
2016-Sep-09 16:30S 26°41' E 153°15'0 0.1
2016-Sep-09 15:27S 26°41' E 153°15'0 0.1
2016-Sep-09 14:33S 26°41' E 153°15'0 0.0
2016-Sep-09 13:15S 26°41' E 153°15'0 0.0
2016-Sep-09 12:06S 26°41' E 153°15'0 0.1
2016-Sep-09 11:27S 26°41' E 153°15'0 0.0
2016-Sep-09 09:27S 26°41' E 153°15'0 0.0
2016-Sep-09 08:27S 26°41' E 153°15'0 0.0
2016-Sep-09 06:18S 26°41' E 153°15'0 0.0
2016-Sep-09 04:30S 26°41' E 153°15'0 0.0
2016-Sep-09 00:21S 26°41' E 153°15'0 0.0
2016-Sep-08 23:30S 26°41' E 153°15'0 0.0
2016-Sep-08 22:33S 26°41' E 153°15'0 0.1
2016-Sep-08 21:33S 26°41' E 153°15'0 0.0
2016-Sep-08 20:24S 26°41' E 153°15'0 0.0
2016-Sep-08 19:30S 26°41' E 153°15'0 0.0
2016-Sep-08 18:30S 26°41' E 153°15'0 0.0
2016-Sep-08 17:27S 26°41' E 153°15'0 0.1
2016-Sep-08 16:30S 26°41' E 153°15'0 0.1
2016-Sep-08 15:33S 26°41' E 153°15'0 0.0
2016-Sep-08 14:09S 26°41' E 153°15'0 0.0
2016-Sep-08 13:27S 26°41' E 153°15'0 0.1
2016-Sep-08 12:33S 26°41' E 153°15'0 0.1
2016-Sep-08 11:33S 26°41' E 153°15'0 0.0
2016-Sep-08 10:33S 26°41' E 153°15'0 0.0
2016-Sep-08 08:27S 26°41' E 153°15'0 0.0
2016-Sep-08 06:33S 26°41' E 153°15'0 0.1
2016-Sep-08 05:32S 26°41' E 153°15'0 0.0
2016-Sep-08 04:33S 26°41' E 153°15'0 0.0
2016-Sep-08 03:26S 26°41' E 153°15'0 0.1
2016-Sep-08 02:33S 26°41' E 153°15'0 0.0
2016-Sep-08 01:26S 26°41' E 153°15'0 0.1
2016-Sep-08 00:30S 26°41' E 153°15'0 0.0
2016-Sep-07 22:32S 26°41' E 153°15'0 0.0
2016-Sep-07 21:32S 26°41' E 153°15'0 0.0
2016-Sep-07 20:32S 26°41' E 153°15'0 0.1
2016-Sep-07 19:33S 26°41' E 153°15'0 0.1
2016-Sep-07 18:32S 26°41' E 153°15'0 0.1
2016-Sep-07 17:29S 26°41' E 153°15'0 0.1
2016-Sep-07 16:26S 26°41' E 153°15'0 0.0
2016-Sep-07 15:32S 26°41' E 153°15'0 0.0
2016-Sep-07 14:32S 26°41' E 153°15'0 0.0
2016-Sep-07 13:32S 26°41' E 153°15'0 0.0
2016-Sep-07 12:29S 26°41' E 153°15'0 0.0
2016-Sep-07 11:26S 26°41' E 153°15'0 0.0
2016-Sep-07 10:20S 26°41' E 153°15'0 0.0
2016-Sep-07 09:32S 26°41' E 153°15'0 0.1
2016-Sep-07 08:32S 26°41' E 153°15'0 0.1
2016-Sep-07 07:32S 26°41' E 153°15'0 0.1
2016-Sep-07 06:29S 26°41' E 153°15'0 0.0
2016-Sep-07 04:32S 26°41' E 153°15'0 0.0
2016-Sep-07 03:23S 26°41' E 153°15'0 0.0
2016-Sep-07 01:05S 26°41' E 153°15'0 0.0
2016-Sep-07 00:26S 26°41' E 153°15'0 0.1
2016-Sep-06 23:32S 26°41' E 153°15'0 0.1
2016-Sep-06 22:32S 26°41' E 153°15'0 0.0
2016-Sep-06 21:32S 26°41' E 153°15'0 0.0
2016-Sep-06 20:17S 26°41' E 153°15'0 0.0
2016-Sep-06 19:29S 26°41' E 153°15'0 0.0
2016-Sep-06 18:29S 26°41' E 153°15'0 0.0
2016-Sep-06 17:32S 26°41' E 153°15'0 0.1
2016-Sep-06 16:32S 26°41' E 153°15'0 0.0
2016-Sep-06 15:29S 26°41' E 153°15'0 0.1
2016-Sep-06 14:32S 26°41' E 153°15'0 0.1
2016-Sep-06 13:29S 26°41' E 153°15'0 0.0
2016-Sep-06 12:29S 26°41' E 153°15'0 0.0
2016-Sep-06 11:29S 26°41' E 153°15'0 0.0
2016-Sep-06 10:20S 26°41' E 153°15'0 0.0
2016-Sep-06 09:32S 26°41' E 153°15'0 0.1
2016-Sep-06 08:32S 26°41' E 153°15'0 0.0
2016-Sep-06 07:32S 26°41' E 153°15'0 0.0
2016-Sep-06 06:32S 26°41' E 153°15'0 0.0
2016-Sep-06 04:32S 26°41' E 153°15'0 0.0
2016-Sep-06 03:32S 26°41' E 153°15'0 0.1
2016-Sep-06 02:29S 26°41' E 153°15'0 0.1
2016-Sep-06 01:32S 26°41' E 153°15'0 0.1
2016-Sep-06 00:32S 26°41' E 153°15'0 0.1
2016-Sep-05 23:32S 26°41' E 153°15'0 0.1
2016-Sep-05 22:32S 26°41' E 153°15'0 0.1
2016-Sep-05 21:32S 26°41' E 153°15'0 0.1
2016-Sep-05 20:32S 26°41' E 153°15'0 0.0
2016-Sep-05 19:29S 26°41' E 153°15'0 0.1
2016-Sep-05 18:32S 26°41' E 153°15'0 0.0
2016-Sep-05 17:29S 26°41' E 153°15'0 0.1
2016-Sep-05 16:32S 26°41' E 153°15'0 0.1
2016-Sep-05 15:32S 26°41' E 153°15'0 0.1
2016-Sep-05 14:26S 26°41' E 153°15'0 0.1
2016-Sep-05 13:32S 26°41' E 153°15'0 0.1
2016-Sep-05 12:32S 26°41' E 153°15'0 0.1
2016-Sep-05 11:32S 26°41' E 153°15'0 0.1
2016-Sep-05 10:32S 26°41' E 153°15'0 0.1
2016-Sep-05 09:26S 26°41' E 153°15'0 0.0
2016-Sep-05 08:17S 26°41' E 153°15'0 0.0
2016-Sep-05 07:29S 26°41' E 153°15'0 0.0
2016-Sep-05 06:32S 26°41' E 153°15'0 0.0
2016-Sep-05 04:32S 26°41' E 153°15'0 0.0
2016-Sep-05 03:32S 26°41' E 153°15'0 0.0
2016-Sep-05 02:32S 26°41' E 153°15'0 0.1
2016-Sep-05 01:32S 26°41' E 153°15'0 0.0
2016-Sep-05 00:32S 26°41' E 153°15'0 0.0
2016-Sep-04 23:23S 26°41' E 153°15'0 0.0
2016-Sep-04 22:32S 26°41' E 153°15'0 0.0
2016-Sep-04 21:29S 26°41' E 153°15'0 0.0
2016-Sep-04 20:26S 26°41' E 153°15'0 0.0
2016-Sep-04 19:32S 26°41' E 153°15'0 0.0
2016-Sep-04 18:32S 26°41' E 153°15'0 0.0
2016-Sep-04 17:32S 26°41' E 153°15'0 0.0
2016-Sep-04 16:32S 26°41' E 153°15'0 0.0
2016-Sep-04 14:32S 26°41' E 153°15'0 0.1
2016-Sep-04 13:32S 26°41' E 153°15'0 0.0
2016-Sep-04 12:17S 26°41' E 153°15'0 0.0
2016-Sep-04 11:26S 26°41' E 153°15'0 0.0
2016-Sep-04 10:17S 26°41' E 153°15'0 0.0
2016-Sep-04 09:32S 26°41' E 153°15'0 0.0
2016-Sep-04 08:20S 26°41' E 153°15'0 0.0
2016-Sep-04 07:11S 26°41' E 153°15'0 0.0
2016-Sep-04 06:32S 26°41' E 153°15'0 0.0
2016-Sep-04 04:26S 26°41' E 153°15'2 1.7
2016-Sep-04 03:33S 26°39' E 153°14'  
Track history (hours):
 
Tides and Currents Weather Stations Pressure Air Temp Water Temp Dewpoint Dewpoint Depression Visibility Wind Speed Wind Dir Waves Ship Positions

Unity N

Last reported at 2016-Sep-13 22:32 UTC. Time now 2016-Sep-26 08:49 UTC.
Position S 26°39' E 153°14'.
Warning: this ship's position is 12 days out of date.

Length 229 m; draft 12.3 m.

Type: Cargo ship. MMSI: 538006451.

Date/timePositionNaut miles runAvg speedWind from/ knotsBaromVisibWave heightAir tempDewpointWater temp
2016-Sep-13 22:32S 26°39' E 153°14'19 9.5
2016-Sep-13 20:32S 26°58' E 153°14'19 9.2
2016-Sep-13 18:31S 27°16' E 153°16'9 9.1
2016-Sep-13 17:33S 27°23' E 153°09'0 0.1
2016-Sep-13 16:33S 27°23' E 153°10'0 0.0
2016-Sep-13 11:33S 27°23' E 153°10'0 0.0
2016-Sep-13 09:33S 27°23' E 153°10'0 0.0
2016-Sep-13 07:33S 27°23' E 153°10'0 0.1
2016-Sep-13 06:33S 27°23' E 153°09'0 0.0
2016-Sep-13 04:33S 27°23' E 153°10'0 0.0
2016-Sep-13 02:33S 27°23' E 153°09'0 0.0
2016-Sep-12 23:33S 27°23' E 153°10'0 0.0
2016-Sep-12 21:33S 27°23' E 153°10'0 0.0
2016-Sep-12 19:33S 27°23' E 153°10'0 0.0
2016-Sep-12 17:33S 27°23' E 153°10'0 0.0
2016-Sep-12 14:33S 27°23' E 153°10'0 0.0
2016-Sep-12 13:33S 27°23' E 153°10'0 0.0
2016-Sep-12 12:33S 27°23' E 153°10'0 0.0
2016-Sep-12 11:33S 27°23' E 153°10'0 0.1
2016-Sep-12 10:33S 27°23' E 153°09'20 6.6
2016-Sep-12 07:34S 27°05' E 153°19'1313.4
2016-Sep-12 06:33S 26°54' E 153°11'13 3.8
2016-Sep-12 03:03S 26°41' E 153°15'0 0.0
2016-Sep-12 01:24S 26°41' E 153°15'0 0.0
2016-Sep-11 23:33S 26°41' E 153°15'0 0.0
2016-Sep-11 21:30S 26°41' E 153°15'0 0.0
2016-Sep-11 20:33S 26°41' E 153°15'0 0.1
2016-Sep-11 19:33S 26°41' E 153°15'0 0.0
2016-Sep-11 18:33S 26°41' E 153°15'0 0.0
2016-Sep-11 17:33S 26°41' E 153°15'0 0.0
2016-Sep-11 16:30S 26°41' E 153°15'0 0.0
2016-Sep-11 14:33S 26°41' E 153°15'0 0.0
2016-Sep-11 13:24S 26°41' E 153°15'0 0.1
2016-Sep-11 12:33S 26°41' E 153°15'0 0.0
2016-Sep-11 11:21S 26°41' E 153°15'0 0.1
2016-Sep-11 10:33S 26°41' E 153°15'0 0.0
2016-Sep-11 08:33S 26°41' E 153°15'0 0.0
2016-Sep-11 07:33S 26°41' E 153°15'0 0.0
2016-Sep-11 03:33S 26°41' E 153°15'0 0.0
2016-Sep-11 02:33S 26°41' E 153°15'0 0.0
2016-Sep-11 01:33S 26°41' E 153°15'0 0.0
2016-Sep-10 23:33S 26°41' E 153°15'0 0.1
2016-Sep-10 22:15S 26°41' E 153°15'0 0.0
2016-Sep-10 21:33S 26°41' E 153°15'0 0.0
2016-Sep-10 20:33S 26°41' E 153°15'0 0.1
2016-Sep-10 19:33S 26°41' E 153°15'0 0.0
2016-Sep-10 18:33S 26°41' E 153°15'0 0.1
2016-Sep-10 17:33S 26°41' E 153°15'0 0.1
2016-Sep-10 16:33S 26°41' E 153°15'0 0.0
2016-Sep-10 15:33S 26°41' E 153°15'0 0.1
2016-Sep-10 14:33S 26°41' E 153°15'0 0.1
2016-Sep-10 13:33S 26°41' E 153°15'0 0.1
2016-Sep-10 12:33S 26°41' E 153°15'0 0.1
2016-Sep-10 11:30S 26°41' E 153°15'0 0.1
2016-Sep-10 10:33S 26°41' E 153°15'0 0.0
2016-Sep-10 09:33S 26°41' E 153°15'0 0.0
2016-Sep-10 04:33S 26°41' E 153°15'0 0.0
2016-Sep-10 03:06S 26°41' E 153°15'0 0.0
2016-Sep-10 02:27S 26°41' E 153°15'0 0.0
2016-Sep-10 01:33S 26°41' E 153°15'0 0.1
2016-Sep-10 00:33S 26°41' E 153°15'0 0.0
2016-Sep-09 23:30S 26°41' E 153°15'0 0.1
2016-Sep-09 22:33S 26°41' E 153°15'0 0.1
2016-Sep-09 21:33S 26°41' E 153°15'0 0.0
2016-Sep-09 20:15S 26°41' E 153°15'0 0.0
2016-Sep-09 19:33S 26°41' E 153°15'0 0.0
2016-Sep-09 18:33S 26°41' E 153°15'0 0.1
2016-Sep-09 17:33S 26°41' E 153°15'0 0.1
2016-Sep-09 16:30S 26°41' E 153°15'0 0.1
2016-Sep-09 15:27S 26°41' E 153°15'0 0.1
2016-Sep-09 14:33S 26°41' E 153°15'0 0.0
2016-Sep-09 13:15S 26°41' E 153°15'0 0.0
2016-Sep-09 12:06S 26°41' E 153°15'0 0.1
2016-Sep-09 11:27S 26°41' E 153°15'0 0.0
2016-Sep-09 09:27S 26°41' E 153°15'0 0.0
2016-Sep-09 08:27S 26°41' E 153°15'0 0.0
2016-Sep-09 06:18S 26°41' E 153°15'0 0.0
2016-Sep-09 04:30S 26°41' E 153°15'0 0.0
2016-Sep-09 00:21S 26°41' E 153°15'0 0.0
2016-Sep-08 23:30S 26°41' E 153°15'0 0.0
2016-Sep-08 22:33S 26°41' E 153°15'0 0.1
2016-Sep-08 21:33S 26°41' E 153°15'0 0.0
2016-Sep-08 20:24S 26°41' E 153°15'0 0.0
2016-Sep-08 19:30S 26°41' E 153°15'0 0.0
2016-Sep-08 18:30S 26°41' E 153°15'0 0.0
2016-Sep-08 17:27S 26°41' E 153°15'0 0.1
2016-Sep-08 16:30S 26°41' E 153°15'0 0.1
2016-Sep-08 15:33S 26°41' E 153°15'0 0.0
2016-Sep-08 14:09S 26°41' E 153°15'0 0.0
2016-Sep-08 13:27S 26°41' E 153°15'0 0.1
2016-Sep-08 12:33S 26°41' E 153°15'0 0.1
2016-Sep-08 11:33S 26°41' E 153°15'0 0.0
2016-Sep-08 10:33S 26°41' E 153°15'0 0.0
2016-Sep-08 08:27S 26°41' E 153°15'0 0.0
2016-Sep-08 06:33S 26°41' E 153°15'0 0.1
2016-Sep-08 05:32S 26°41' E 153°15'0 0.0
2016-Sep-08 04:33S 26°41' E 153°15'0 0.0
2016-Sep-08 03:26S 26°41' E 153°15'0 0.1
2016-Sep-08 02:33S 26°41' E 153°15'0 0.0
2016-Sep-08 01:26S 26°41' E 153°15'0 0.1
2016-Sep-08 00:30S 26°41' E 153°15'0 0.0
2016-Sep-07 22:32S 26°41' E 153°15'0 0.0
2016-Sep-07 21:32S 26°41' E 153°15'0 0.0
2016-Sep-07 20:32S 26°41' E 153°15'0 0.1
2016-Sep-07 19:33S 26°41' E 153°15'0 0.1
2016-Sep-07 18:32S 26°41' E 153°15'0 0.1
2016-Sep-07 17:29S 26°41' E 153°15'0 0.1
2016-Sep-07 16:26S 26°41' E 153°15'0 0.0
2016-Sep-07 15:32S 26°41' E 153°15'0 0.0
2016-Sep-07 14:32S 26°41' E 153°15'0 0.0
2016-Sep-07 13:32S 26°41' E 153°15'0 0.0
2016-Sep-07 12:29S 26°41' E 153°15'0 0.0
2016-Sep-07 11:26S 26°41' E 153°15'0 0.0
2016-Sep-07 10:20S 26°41' E 153°15'0 0.0
2016-Sep-07 09:32S 26°41' E 153°15'0 0.1
2016-Sep-07 08:32S 26°41' E 153°15'0 0.1
2016-Sep-07 07:32S 26°41' E 153°15'0 0.1
2016-Sep-07 06:29S 26°41' E 153°15'0 0.0
2016-Sep-07 04:32S 26°41' E 153°15'0 0.0
2016-Sep-07 03:23S 26°41' E 153°15'0 0.0
2016-Sep-07 01:05S 26°41' E 153°15'0 0.0
2016-Sep-07 00:26S 26°41' E 153°15'0 0.1
2016-Sep-06 23:32S 26°41' E 153°15'0 0.1
2016-Sep-06 22:32S 26°41' E 153°15'0 0.0
2016-Sep-06 21:32S 26°41' E 153°15'0 0.0
2016-Sep-06 20:17S 26°41' E 153°15'0 0.0
2016-Sep-06 19:29S 26°41' E 153°15'0 0.0
2016-Sep-06 18:29S 26°41' E 153°15'0 0.0
2016-Sep-06 17:32S 26°41' E 153°15'0 0.1
2016-Sep-06 16:32S 26°41' E 153°15'0 0.0
2016-Sep-06 15:29S 26°41' E 153°15'0 0.1
2016-Sep-06 14:32S 26°41' E 153°15'0 0.1
2016-Sep-06 13:29S 26°41' E 153°15'0 0.0
2016-Sep-06 12:29S 26°41' E 153°15'0 0.0
2016-Sep-06 11:29S 26°41' E 153°15'0 0.0
2016-Sep-06 10:20S 26°41' E 153°15'0 0.0
2016-Sep-06 09:32S 26°41' E 153°15'0 0.1
2016-Sep-06 08:32S 26°41' E 153°15'0 0.0
2016-Sep-06 07:32S 26°41' E 153°15'0 0.0
2016-Sep-06 06:32S 26°41' E 153°15'0 0.0
2016-Sep-06 04:32S 26°41' E 153°15'0 0.0
2016-Sep-06 03:32S 26°41' E 153°15'0 0.1
2016-Sep-06 02:29S 26°41' E 153°15'0 0.1
2016-Sep-06 01:32S 26°41' E 153°15'0 0.1
2016-Sep-06 00:32S 26°41' E 153°15'0 0.1
2016-Sep-05 23:32S 26°41' E 153°15'0 0.1
2016-Sep-05 22:32S 26°41' E 153°15'0 0.1
2016-Sep-05 21:32S 26°41' E 153°15'0 0.1
2016-Sep-05 20:32S 26°41' E 153°15'0 0.0
2016-Sep-05 19:29S 26°41' E 153°15'0 0.1
2016-Sep-05 18:32S 26°41' E 153°15'0 0.0
2016-Sep-05 17:29S 26°41' E 153°15'0 0.1
2016-Sep-05 16:32S 26°41' E 153°15'0 0.1
2016-Sep-05 15:32S 26°41' E 153°15'0 0.1
2016-Sep-05 14:26S 26°41' E 153°15'0 0.1
2016-Sep-05 13:32S 26°41' E 153°15'0 0.1
2016-Sep-05 12:32S 26°41' E 153°15'0 0.1
2016-Sep-05 11:32S 26°41' E 153°15'0 0.1
2016-Sep-05 10:32S 26°41' E 153°15'0 0.1
2016-Sep-05 09:26S 26°41' E 153°15'0 0.0
2016-Sep-05 08:17S 26°41' E 153°15'0 0.0
2016-Sep-05 07:29S 26°41' E 153°15'0 0.0
2016-Sep-05 06:32S 26°41' E 153°15'0 0.0
2016-Sep-05 04:32S 26°41' E 153°15'0 0.0
2016-Sep-05 03:32S 26°41' E 153°15'0 0.0
2016-Sep-05 02:32S 26°41' E 153°15'0 0.1
2016-Sep-05 01:32S 26°41' E 153°15'0 0.0
2016-Sep-05 00:32S 26°41' E 153°15'0 0.0
2016-Sep-04 23:23S 26°41' E 153°15'0 0.0
2016-Sep-04 22:32S 26°41' E 153°15'0 0.0
2016-Sep-04 21:29S 26°41' E 153°15'0 0.0
2016-Sep-04 20:26S 26°41' E 153°15'0 0.0
2016-Sep-04 19:32S 26°41' E 153°15'0 0.0
2016-Sep-04 18:32S 26°41' E 153°15'0 0.0
2016-Sep-04 17:32S 26°41' E 153°15'0 0.0
2016-Sep-04 16:32S 26°41' E 153°15'0 0.0
2016-Sep-04 14:32S 26°41' E 153°15'0 0.1
2016-Sep-04 13:32S 26°41' E 153°15'0 0.0
2016-Sep-04 12:17S 26°41' E 153°15'0 0.0
2016-Sep-04 11:26S 26°41' E 153°15'0 0.0
2016-Sep-04 10:17S 26°41' E 153°15'0 0.0
2016-Sep-04 09:32S 26°41' E 153°15'0 0.0
2016-Sep-04 08:20S 26°41' E 153°15'0 0.0
2016-Sep-04 07:11S 26°41' E 153°15'0 0.0
2016-Sep-04 06:32S 26°41' E 153°15'0 0.0
2016-Sep-04 04:26S 26°41' E 153°15'2 1.7
2016-Sep-04 03:33S 26°39' E 153°14'  

Dump ship's entire track history